sensor_id;sensor_type;location;lat;lon;timestamp;P1;durP1;ratioP1;P2;durP2;ratioP2
52166;SDS011;38149;52.666;6.428;2023-04-03T00:00:27;0.20;;;0.20;;
52166;SDS011;38149;52.666;6.428;2023-04-03T00:02:54;0.20;;;0.20;;
52166;SDS011;38149;52.666;6.428;2023-04-03T00:05:20;0.20;;;0.20;;
52166;SDS011;38149;52.666;6.428;2023-04-03T00:07:46;0.20;;;0.20;;
52166;SDS011;38149;52.666;6.428;2023-04-03T00:10:14;0.20;;;0.20;;
52166;SDS011;38149;52.666;6.428;2023-04-03T00:12:41;0.30;;;0.30;;
52166;SDS011;38149;52.666;6.428;2023-04-03T00:15:07;0.20;;;0.20;;
52166;SDS011;38149;52.666;6.428;2023-04-03T00:17:33;0.20;;;0.20;;
52166;SDS011;38149;52.666;6.428;2023-04-03T00:20:00;0.20;;;0.20;;
52166;SDS011;38149;52.666;6.428;2023-04-03T00:22:26;0.20;;;0.20;;
52166;SDS011;38149;52.666;6.428;2023-04-03T00:24:53;0.20;;;0.20;;
52166;SDS011;38149;52.666;6.428;2023-04-03T00:27:20;0.20;;;0.20;;
52166;SDS011;38149;52.666;6.428;2023-04-03T00:29:46;0.20;;;0.20;;
52166;SDS011;38149;52.666;6.428;2023-04-03T00:32:12;0.20;;;0.20;;
52166;SDS011;38149;52.666;6.428;2023-04-03T00:34:38;0.20;;;0.20;;
52166;SDS011;38149;52.666;6.428;2023-04-03T00:37:04;0.28;;;0.28;;
52166;SDS011;38149;52.666;6.428;2023-04-03T00:39:31;0.20;;;0.20;;
52166;SDS011;38149;52.666;6.428;2023-04-03T00:41:57;0.20;;;0.20;;
52166;SDS011;38149;52.666;6.428;2023-04-03T00:46:58;0.20;;;0.20;;
52166;SDS011;38149;52.666;6.428;2023-04-03T00:49:25;0.20;;;0.20;;
52166;SDS011;38149;52.666;6.428;2023-04-03T00:51:52;0.30;;;0.30;;
52166;SDS011;38149;52.666;6.428;2023-04-03T00:54:18;0.30;;;0.30;;
52166;SDS011;38149;52.666;6.428;2023-04-03T00:56:45;0.25;;;0.25;;
52166;SDS011;38149;52.666;6.428;2023-04-03T00:59:12;0.30;;;0.30;;
52166;SDS011;38149;52.666;6.428;2023-04-03T01:01:46;0.20;;;0.20;;
52166;SDS011;38149;52.666;6.428;2023-04-03T01:07:08;0.30;;;0.30;;
52166;SDS011;38149;52.666;6.428;2023-04-03T01:09:42;0.20;;;0.20;;
52166;SDS011;38149;52.666;6.428;2023-04-03T01:12:16;0.30;;;0.30;;
52166;SDS011;38149;52.666;6.428;2023-04-03T01:14:44;0.20;;;0.20;;
52166;SDS011;38149;52.666;6.428;2023-04-03T01:23:06;0.30;;;0.30;;
52166;SDS011;38149;52.666;6.428;2023-04-03T01:28:22;0.20;;;0.20;;
52166;SDS011;38149;52.666;6.428;2023-04-03T01:33:46;0.20;;;0.20;;
52166;SDS011;38149;52.666;6.428;2023-04-03T01:36:14;0.30;;;0.30;;
52166;SDS011;38149;52.666;6.428;2023-04-03T01:38:45;0.30;;;0.30;;
52166;SDS011;38149;52.666;6.428;2023-04-03T01:41:12;0.25;;;0.25;;
52166;SDS011;38149;52.666;6.428;2023-04-03T01:43:38;0.30;;;0.30;;
52166;SDS011;38149;52.666;6.428;2023-04-03T01:46:04;0.28;;;0.28;;
52166;SDS011;38149;52.666;6.428;2023-04-03T01:48:30;0.30;;;0.30;;
52166;SDS011;38149;52.666;6.428;2023-04-03T01:50:56;0.30;;;0.30;;
52166;SDS011;38149;52.666;6.428;2023-04-03T01:53:22;0.30;;;0.30;;
52166;SDS011;38149;52.666;6.428;2023-04-03T01:55:48;0.30;;;0.30;;
52166;SDS011;38149;52.666;6.428;2023-04-03T01:58:15;0.30;;;0.30;;
52166;SDS011;38149;52.666;6.428;2023-04-03T02:00:41;0.30;;;0.30;;
52166;SDS011;38149;52.666;6.428;2023-04-03T02:03:07;0.30;;;0.30;;
52166;SDS011;38149;52.666;6.428;2023-04-03T02:05:33;0.20;;;0.20;;
52166;SDS011;38149;52.666;6.428;2023-04-03T02:08:00;0.20;;;0.20;;
52166;SDS011;38149;52.666;6.428;2023-04-03T02:10:26;0.30;;;0.30;;
52166;SDS011;38149;52.666;6.428;2023-04-03T02:12:52;0.30;;;0.30;;
52166;SDS011;38149;52.666;6.428;2023-04-03T02:15:18;0.30;;;0.30;;
52166;SDS011;38149;52.666;6.428;2023-04-03T02:17:44;0.20;;;0.20;;
52166;SDS011;38149;52.666;6.428;2023-04-03T02:20:10;0.30;;;0.30;;
52166;SDS011;38149;52.666;6.428;2023-04-03T02:22:37;0.30;;;0.30;;
52166;SDS011;38149;52.666;6.428;2023-04-03T02:25:03;0.25;;;0.25;;
52166;SDS011;38149;52.666;6.428;2023-04-03T02:27:30;0.30;;;0.30;;
52166;SDS011;38149;52.666;6.428;2023-04-03T02:29:56;0.30;;;0.30;;
52166;SDS011;38149;52.666;6.428;2023-04-03T02:32:22;0.30;;;0.30;;
52166;SDS011;38149;52.666;6.428;2023-04-03T02:34:49;0.30;;;0.30;;
52166;SDS011;38149;52.666;6.428;2023-04-03T02:37:15;0.30;;;0.30;;
52166;SDS011;38149;52.666;6.428;2023-04-03T02:39:41;0.28;;;0.28;;
52166;SDS011;38149;52.666;6.428;2023-04-03T02:42:07;0.20;;;0.20;;
52166;SDS011;38149;52.666;6.428;2023-04-03T02:44:33;0.20;;;0.20;;
52166;SDS011;38149;52.666;6.428;2023-04-03T02:47:00;0.20;;;0.20;;
52166;SDS011;38149;52.666;6.428;2023-04-03T02:49:27;0.30;;;0.30;;
52166;SDS011;38149;52.666;6.428;2023-04-03T02:51:53;0.20;;;0.20;;
52166;SDS011;38149;52.666;6.428;2023-04-03T02:54:19;0.30;;;0.30;;
52166;SDS011;38149;52.666;6.428;2023-04-03T02:56:47;0.30;;;0.30;;
52166;SDS011;38149;52.666;6.428;2023-04-03T02:59:13;0.20;;;0.20;;
52166;SDS011;38149;52.666;6.428;2023-04-03T03:01:39;0.30;;;0.30;;
52166;SDS011;38149;52.666;6.428;2023-04-03T03:04:06;0.20;;;0.20;;
52166;SDS011;38149;52.666;6.428;2023-04-03T03:06:32;0.28;;;0.28;;
52166;SDS011;38149;52.666;6.428;2023-04-03T03:08:58;0.30;;;0.30;;
52166;SDS011;38149;52.666;6.428;2023-04-03T03:11:24;0.20;;;0.20;;
52166;SDS011;38149;52.666;6.428;2023-04-03T03:13:51;0.30;;;0.30;;
52166;SDS011;38149;52.666;6.428;2023-04-03T03:16:17;0.30;;;0.30;;
52166;SDS011;38149;52.666;6.428;2023-04-03T03:18:43;0.28;;;0.28;;
52166;SDS011;38149;52.666;6.428;2023-04-03T03:21:09;0.30;;;0.30;;
52166;SDS011;38149;52.666;6.428;2023-04-03T03:23:35;0.25;;;0.25;;
52166;SDS011;38149;52.666;6.428;2023-04-03T03:26:03;0.30;;;0.30;;
52166;SDS011;38149;52.666;6.428;2023-04-03T03:28:31;0.30;;;0.30;;
52166;SDS011;38149;52.666;6.428;2023-04-03T03:30:58;0.20;;;0.20;;
52166;SDS011;38149;52.666;6.428;2023-04-03T03:33:24;0.30;;;0.30;;
52166;SDS011;38149;52.666;6.428;2023-04-03T03:35:51;0.20;;;0.20;;
52166;SDS011;38149;52.666;6.428;2023-04-03T03:38:18;0.30;;;0.30;;
52166;SDS011;38149;52.666;6.428;2023-04-03T03:40:44;0.20;;;0.20;;
52166;SDS011;38149;52.666;6.428;2023-04-03T03:43:11;0.30;;;0.30;;
52166;SDS011;38149;52.666;6.428;2023-04-03T03:45:37;0.30;;;0.30;;
52166;SDS011;38149;52.666;6.428;2023-04-03T03:48:04;0.30;;;0.30;;
52166;SDS011;38149;52.666;6.428;2023-04-03T03:50:30;0.30;;;0.30;;
52166;SDS011;38149;52.666;6.428;2023-04-03T03:52:56;0.30;;;0.30;;
52166;SDS011;38149;52.666;6.428;2023-04-03T03:55:22;0.30;;;0.30;;
52166;SDS011;38149;52.666;6.428;2023-04-03T03:57:48;0.20;;;0.20;;
52166;SDS011;38149;52.666;6.428;2023-04-03T04:00:15;0.25;;;0.25;;
52166;SDS011;38149;52.666;6.428;2023-04-03T04:02:41;0.20;;;0.20;;
52166;SDS011;38149;52.666;6.428;2023-04-03T04:05:08;0.30;;;0.30;;
52166;SDS011;38149;52.666;6.428;2023-04-03T04:07:34;0.20;;;0.20;;
52166;SDS011;38149;52.666;6.428;2023-04-03T04:10:00;0.30;;;0.30;;
52166;SDS011;38149;52.666;6.428;2023-04-03T04:12:27;0.30;;;0.30;;
52166;SDS011;38149;52.666;6.428;2023-04-03T04:14:53;0.30;;;0.30;;
52166;SDS011;38149;52.666;6.428;2023-04-03T04:17:19;0.30;;;0.30;;
52166;SDS011;38149;52.666;6.428;2023-04-03T04:19:45;0.30;;;0.30;;
52166;SDS011;38149;52.666;6.428;2023-04-03T04:22:11;0.30;;;0.30;;
52166;SDS011;38149;52.666;6.428;2023-04-03T04:24:37;0.30;;;0.30;;
52166;SDS011;38149;52.666;6.428;2023-04-03T04:27:03;0.30;;;0.30;;
52166;SDS011;38149;52.666;6.428;2023-04-03T04:29:29;0.30;;;0.30;;
52166;SDS011;38149;52.666;6.428;2023-04-03T04:32:00;0.25;;;0.25;;
52166;SDS011;38149;52.666;6.428;2023-04-03T04:34:27;0.30;;;0.30;;
52166;SDS011;38149;52.666;6.428;2023-04-03T04:36:53;0.30;;;0.30;;
52166;SDS011;38149;52.666;6.428;2023-04-03T04:39:20;0.30;;;0.30;;
52166;SDS011;38149;52.666;6.428;2023-04-03T04:41:46;0.20;;;0.20;;
52166;SDS011;38149;52.666;6.428;2023-04-03T04:44:12;0.20;;;0.20;;
52166;SDS011;38149;52.666;6.428;2023-04-03T04:46:38;0.22;;;0.22;;
52166;SDS011;38149;52.666;6.428;2023-04-03T04:49:04;0.28;;;0.28;;
52166;SDS011;38149;52.666;6.428;2023-04-03T04:51:30;0.30;;;0.30;;
52166;SDS011;38149;52.666;6.428;2023-04-03T04:53:56;0.30;;;0.30;;
52166;SDS011;38149;52.666;6.428;2023-04-03T04:56:22;0.30;;;0.30;;
52166;SDS011;38149;52.666;6.428;2023-04-03T04:58:48;0.30;;;0.30;;
52166;SDS011;38149;52.666;6.428;2023-04-03T05:01:15;0.30;;;0.30;;
52166;SDS011;38149;52.666;6.428;2023-04-03T05:03:41;0.30;;;0.30;;
52166;SDS011;38149;52.666;6.428;2023-04-03T05:06:07;0.30;;;0.30;;
52166;SDS011;38149;52.666;6.428;2023-04-03T05:08:33;0.30;;;0.30;;
52166;SDS011;38149;52.666;6.428;2023-04-03T05:10:59;0.30;;;0.30;;
52166;SDS011;38149;52.666;6.428;2023-04-03T05:13:25;0.30;;;0.30;;
52166;SDS011;38149;52.666;6.428;2023-04-03T05:15:51;0.30;;;0.30;;
52166;SDS011;38149;52.666;6.428;2023-04-03T05:18:18;0.30;;;0.30;;
52166;SDS011;38149;52.666;6.428;2023-04-03T05:20:44;0.30;;;0.30;;
52166;SDS011;38149;52.666;6.428;2023-04-03T05:23:10;0.30;;;0.30;;
52166;SDS011;38149;52.666;6.428;2023-04-03T05:25:37;0.30;;;0.30;;
52166;SDS011;38149;52.666;6.428;2023-04-03T05:28:03;0.30;;;0.30;;
52166;SDS011;38149;52.666;6.428;2023-04-03T05:30:30;0.30;;;0.30;;
52166;SDS011;38149;52.666;6.428;2023-04-03T05:32:56;0.30;;;0.30;;
52166;SDS011;38149;52.666;6.428;2023-04-03T05:35:23;0.30;;;0.30;;
52166;SDS011;38149;52.666;6.428;2023-04-03T05:37:49;0.40;;;0.40;;
52166;SDS011;38149;52.666;6.428;2023-04-03T05:40:15;0.30;;;0.30;;
52166;SDS011;38149;52.666;6.428;2023-04-03T05:42:41;0.30;;;0.30;;
52166;SDS011;38149;52.666;6.428;2023-04-03T05:45:07;0.30;;;0.30;;
52166;SDS011;38149;52.666;6.428;2023-04-03T05:47:33;0.30;;;0.30;;
52166;SDS011;38149;52.666;6.428;2023-04-03T05:50:00;0.30;;;0.30;;
52166;SDS011;38149;52.666;6.428;2023-04-03T05:52:27;0.30;;;0.30;;
52166;SDS011;38149;52.666;6.428;2023-04-03T05:54:55;0.30;;;0.30;;
52166;SDS011;38149;52.666;6.428;2023-04-03T05:57:22;0.30;;;0.30;;
52166;SDS011;38149;52.666;6.428;2023-04-03T05:59:48;0.30;;;0.30;;
52166;SDS011;38149;52.666;6.428;2023-04-03T06:02:16;0.30;;;0.30;;
52166;SDS011;38149;52.666;6.428;2023-04-03T06:04:44;0.30;;;0.30;;
52166;SDS011;38149;52.666;6.428;2023-04-03T06:07:11;0.30;;;0.30;;
52166;SDS011;38149;52.666;6.428;2023-04-03T06:09:42;0.30;;;0.30;;
52166;SDS011;38149;52.666;6.428;2023-04-03T06:12:08;0.38;;;0.38;;
52166;SDS011;38149;52.666;6.428;2023-04-03T06:14:35;0.30;;;0.30;;
52166;SDS011;38149;52.666;6.428;2023-04-03T06:17:01;0.30;;;0.30;;
52166;SDS011;38149;52.666;6.428;2023-04-03T06:19:28;0.30;;;0.30;;
52166;SDS011;38149;52.666;6.428;2023-04-03T06:22:00;0.30;;;0.30;;
52166;SDS011;38149;52.666;6.428;2023-04-03T06:24:27;0.30;;;0.30;;
52166;SDS011;38149;52.666;6.428;2023-04-03T06:26:54;0.30;;;0.30;;
52166;SDS011;38149;52.666;6.428;2023-04-03T06:29:20;0.30;;;0.30;;
52166;SDS011;38149;52.666;6.428;2023-04-03T06:31:47;0.30;;;0.30;;
52166;SDS011;38149;52.666;6.428;2023-04-03T06:34:13;0.30;;;0.30;;
52166;SDS011;38149;52.666;6.428;2023-04-03T06:36:40;0.30;;;0.30;;
52166;SDS011;38149;52.666;6.428;2023-04-03T06:39:08;0.30;;;0.30;;
52166;SDS011;38149;52.666;6.428;2023-04-03T06:41:37;0.30;;;0.30;;
52166;SDS011;38149;52.666;6.428;2023-04-03T06:44:03;0.30;;;0.30;;
52166;SDS011;38149;52.666;6.428;2023-04-03T06:46:29;0.30;;;0.30;;
52166;SDS011;38149;52.666;6.428;2023-04-03T06:48:56;0.30;;;0.30;;
52166;SDS011;38149;52.666;6.428;2023-04-03T06:53:49;0.30;;;0.30;;
52166;SDS011;38149;52.666;6.428;2023-04-03T06:56:17;0.30;;;0.30;;
52166;SDS011;38149;52.666;6.428;2023-04-03T06:58:43;0.30;;;0.30;;
52166;SDS011;38149;52.666;6.428;2023-04-03T07:01:10;0.30;;;0.30;;
52166;SDS011;38149;52.666;6.428;2023-04-03T07:03:38;0.30;;;0.30;;
52166;SDS011;38149;52.666;6.428;2023-04-03T07:06:05;0.30;;;0.30;;
52166;SDS011;38149;52.666;6.428;2023-04-03T07:08:32;0.30;;;0.30;;
52166;SDS011;38149;52.666;6.428;2023-04-03T07:10:59;0.30;;;0.30;;
52166;SDS011;38149;52.666;6.428;2023-04-03T07:13:25;0.30;;;0.30;;
52166;SDS011;38149;52.666;6.428;2023-04-03T07:15:51;0.30;;;0.30;;
52166;SDS011;38149;52.666;6.428;2023-04-03T07:18:18;0.30;;;0.30;;
52166;SDS011;38149;52.666;6.428;2023-04-03T07:20:44;0.30;;;0.30;;
52166;SDS011;38149;52.666;6.428;2023-04-03T07:23:11;0.28;;;0.28;;
52166;SDS011;38149;52.666;6.428;2023-04-03T07:25:41;0.30;;;0.30;;
52166;SDS011;38149;52.666;6.428;2023-04-03T07:28:11;0.30;;;0.30;;
52166;SDS011;38149;52.666;6.428;2023-04-03T07:30:59;0.30;;;0.30;;
52166;SDS011;38149;52.666;6.428;2023-04-03T07:33:29;0.30;;;0.30;;
52166;SDS011;38149;52.666;6.428;2023-04-03T07:35:56;0.30;;;0.30;;
52166;SDS011;38149;52.666;6.428;2023-04-03T07:38:22;0.20;;;0.20;;
52166;SDS011;38149;52.666;6.428;2023-04-03T07:40:49;0.30;;;0.30;;
52166;SDS011;38149;52.666;6.428;2023-04-03T07:43:16;0.30;;;0.30;;
52166;SDS011;38149;52.666;6.428;2023-04-03T07:45:42;0.30;;;0.30;;
52166;SDS011;38149;52.666;6.428;2023-04-03T07:48:12;0.30;;;0.30;;
52166;SDS011;38149;52.666;6.428;2023-04-03T07:50:41;0.30;;;0.30;;
52166;SDS011;38149;52.666;6.428;2023-04-03T07:53:08;0.30;;;0.30;;
52166;SDS011;38149;52.666;6.428;2023-04-03T07:55:34;0.22;;;0.22;;
52166;SDS011;38149;52.666;6.428;2023-04-03T07:58:05;0.30;;;0.30;;
52166;SDS011;38149;52.666;6.428;2023-04-03T08:00:31;0.30;;;0.30;;
52166;SDS011;38149;52.666;6.428;2023-04-03T08:02:57;0.22;;;0.22;;
52166;SDS011;38149;52.666;6.428;2023-04-03T08:05:23;0.30;;;0.30;;
52166;SDS011;38149;52.666;6.428;2023-04-03T08:07:50;0.30;;;0.30;;
52166;SDS011;38149;52.666;6.428;2023-04-03T08:10:16;0.30;;;0.30;;
52166;SDS011;38149;52.666;6.428;2023-04-03T08:12:45;0.30;;;0.30;;
52166;SDS011;38149;52.666;6.428;2023-04-03T08:15:11;0.30;;;0.30;;
52166;SDS011;38149;52.666;6.428;2023-04-03T08:17:38;0.30;;;0.30;;
52166;SDS011;38149;52.666;6.428;2023-04-03T08:20:04;0.30;;;0.30;;
52166;SDS011;38149;52.666;6.428;2023-04-03T08:22:31;0.30;;;0.30;;
52166;SDS011;38149;52.666;6.428;2023-04-03T08:24:58;0.20;;;0.20;;
52166;SDS011;38149;52.666;6.428;2023-04-03T08:27:24;0.20;;;0.20;;
52166;SDS011;38149;52.666;6.428;2023-04-03T08:29:51;0.30;;;0.30;;
52166;SDS011;38149;52.666;6.428;2023-04-03T08:32:17;0.20;;;0.20;;
52166;SDS011;38149;52.666;6.428;2023-04-03T08:34:44;0.20;;;0.20;;
52166;SDS011;38149;52.666;6.428;2023-04-03T08:37:11;0.22;;;0.22;;
52166;SDS011;38149;52.666;6.428;2023-04-03T08:39:37;0.30;;;0.30;;
52166;SDS011;38149;52.666;6.428;2023-04-03T08:42:05;0.20;;;0.20;;
52166;SDS011;38149;52.666;6.428;2023-04-03T08:50:07;0.30;;;0.30;;
52166;SDS011;38149;52.666;6.428;2023-04-03T08:52:51;0.20;;;0.20;;
52166;SDS011;38149;52.666;6.428;2023-04-03T08:57:57;0.30;;;0.30;;
52166;SDS011;38149;52.666;6.428;2023-04-03T09:00:34;0.30;;;0.30;;
52166;SDS011;38149;52.666;6.428;2023-04-03T09:03:11;0.20;;;0.20;;
52166;SDS011;38149;52.666;6.428;2023-04-03T09:05:47;0.20;;;0.20;;
52166;SDS011;38149;52.666;6.428;2023-04-03T09:08:33;0.20;;;0.20;;
52166;SDS011;38149;52.666;6.428;2023-04-03T09:14:03;0.30;;;0.30;;
52166;SDS011;38149;52.666;6.428;2023-04-03T09:22:02;0.30;;;0.30;;
52166;SDS011;38149;52.666;6.428;2023-04-03T09:24:47;0.20;;;0.20;;
52166;SDS011;38149;52.666;6.428;2023-04-03T09:27:24;0.20;;;0.20;;
52166;SDS011;38149;52.666;6.428;2023-04-03T09:29:52;0.30;;;0.30;;
52166;SDS011;38149;52.666;6.428;2023-04-03T09:35:01;0.25;;;0.25;;
52166;SDS011;38149;52.666;6.428;2023-04-03T09:37:42;0.30;;;0.30;;
52166;SDS011;38149;52.666;6.428;2023-04-03T09:43:02;0.30;;;0.30;;
52166;SDS011;38149;52.666;6.428;2023-04-03T09:45:49;0.22;;;0.22;;
52166;SDS011;38149;52.666;6.428;2023-04-03T09:56:00;0.30;;;0.30;;
52166;SDS011;38149;52.666;6.428;2023-04-03T09:58:38;0.28;;;0.28;;
52166;SDS011;38149;52.666;6.428;2023-04-03T10:01:06;0.28;;;0.28;;
52166;SDS011;38149;52.666;6.428;2023-04-03T10:04:11;0.20;;;0.20;;
52166;SDS011;38149;52.666;6.428;2023-04-03T10:06:48;0.20;;;0.20;;
52166;SDS011;38149;52.666;6.428;2023-04-03T10:12:03;0.20;;;0.20;;
52166;SDS011;38149;52.666;6.428;2023-04-03T10:14:31;0.20;;;0.20;;
52166;SDS011;38149;52.666;6.428;2023-04-03T10:19:47;0.20;;;0.20;;
52166;SDS011;38149;52.666;6.428;2023-04-03T10:22:18;0.20;;;0.20;;
52166;SDS011;38149;52.666;6.428;2023-04-03T10:24:52;0.20;;;0.20;;
52166;SDS011;38149;52.666;6.428;2023-04-03T10:27:42;0.20;;;0.20;;
52166;SDS011;38149;52.666;6.428;2023-04-03T10:57:50;0.20;;;0.20;;
52166;SDS011;38149;52.666;6.428;2023-04-03T11:00:21;0.20;;;0.20;;
52166;SDS011;38149;52.666;6.428;2023-04-03T11:02:55;0.20;;;0.20;;
52166;SDS011;38149;52.666;6.428;2023-04-03T11:08:02;0.20;;;0.20;;
52166;SDS011;38149;52.666;6.428;2023-04-03T11:10:41;0.20;;;0.20;;
52166;SDS011;38149;52.666;6.428;2023-04-03T11:13:14;0.20;;;0.20;;
52166;SDS011;38149;52.666;6.428;2023-04-03T11:15:58;0.20;;;0.20;;
52166;SDS011;38149;52.666;6.428;2023-04-03T11:18:35;0.20;;;0.20;;
52166;SDS011;38149;52.666;6.428;2023-04-03T11:23:46;0.20;;;0.20;;
52166;SDS011;38149;52.666;6.428;2023-04-03T11:26:14;0.20;;;0.20;;
52166;SDS011;38149;52.666;6.428;2023-04-03T11:28:43;0.20;;;0.20;;
52166;SDS011;38149;52.666;6.428;2023-04-03T11:31:16;0.20;;;0.20;;
52166;SDS011;38149;52.666;6.428;2023-04-03T11:36:40;0.20;;;0.20;;
52166;SDS011;38149;52.666;6.428;2023-04-03T11:41:49;0.20;;;0.20;;
52166;SDS011;38149;52.666;6.428;2023-04-03T11:44:29;0.20;;;0.20;;
52166;SDS011;38149;52.666;6.428;2023-04-03T11:47:07;0.20;;;0.20;;
52166;SDS011;38149;52.666;6.428;2023-04-03T11:49:54;0.20;;;0.20;;
52166;SDS011;38149;52.666;6.428;2023-04-03T12:05:54;0.20;;;0.20;;
52166;SDS011;38149;52.666;6.428;2023-04-03T12:11:36;0.20;;;0.20;;
52166;SDS011;38149;52.666;6.428;2023-04-03T12:14:04;0.20;;;0.20;;
52166;SDS011;38149;52.666;6.428;2023-04-03T12:40:42;0.20;;;0.20;;
52166;SDS011;38149;52.666;6.428;2023-04-03T12:46:12;0.20;;;0.20;;
52166;SDS011;38149;52.666;6.428;2023-04-03T12:51:14;0.20;;;0.20;;
52166;SDS011;38149;52.666;6.428;2023-04-03T12:53:44;0.20;;;0.20;;
52166;SDS011;38149;52.666;6.428;2023-04-03T12:56:21;0.20;;;0.20;;
52166;SDS011;38149;52.666;6.428;2023-04-03T12:58:52;0.20;;;0.20;;
52166;SDS011;38149;52.666;6.428;2023-04-03T13:01:23;0.20;;;0.20;;
52166;SDS011;38149;52.666;6.428;2023-04-03T13:03:52;0.20;;;0.20;;
52166;SDS011;38149;52.666;6.428;2023-04-03T13:06:21;0.20;;;0.20;;
52166;SDS011;38149;52.666;6.428;2023-04-03T13:09:03;0.20;;;0.20;;
52166;SDS011;38149;52.666;6.428;2023-04-03T13:11:39;0.20;;;0.20;;
52166;SDS011;38149;52.666;6.428;2023-04-03T13:14:17;0.20;;;0.20;;
52166;SDS011;38149;52.666;6.428;2023-04-03T13:19:34;0.20;;;0.20;;
52166;SDS011;38149;52.666;6.428;2023-04-03T13:22:02;0.20;;;0.20;;
52166;SDS011;38149;52.666;6.428;2023-04-03T13:24:34;0.20;;;0.20;;
52166;SDS011;38149;52.666;6.428;2023-04-03T13:27:03;0.20;;;0.20;;
52166;SDS011;38149;52.666;6.428;2023-04-03T13:29:31;0.20;;;0.20;;
52166;SDS011;38149;52.666;6.428;2023-04-03T13:31:59;0.20;;;0.20;;
52166;SDS011;38149;52.666;6.428;2023-04-03T13:34:37;0.20;;;0.20;;
52166;SDS011;38149;52.666;6.428;2023-04-03T13:37:06;0.20;;;0.20;;
52166;SDS011;38149;52.666;6.428;2023-04-03T13:39:44;0.20;;;0.20;;
52166;SDS011;38149;52.666;6.428;2023-04-03T13:42:43;0.20;;;0.20;;
52166;SDS011;38149;52.666;6.428;2023-04-03T13:47:46;0.20;;;0.20;;
52166;SDS011;38149;52.666;6.428;2023-04-03T13:52:43;0.20;;;0.20;;
52166;SDS011;38149;52.666;6.428;2023-04-03T13:55:23;0.20;;;0.20;;
52166;SDS011;38149;52.666;6.428;2023-04-03T13:58:02;0.20;;;0.20;;
52166;SDS011;38149;52.666;6.428;2023-04-03T14:00:36;0.20;;;0.20;;
52166;SDS011;38149;52.666;6.428;2023-04-03T14:03:11;0.20;;;0.20;;
52166;SDS011;38149;52.666;6.428;2023-04-03T14:05:48;0.10;;;0.10;;
52166;SDS011;38149;52.666;6.428;2023-04-03T14:08:16;0.20;;;0.20;;
52166;SDS011;38149;52.666;6.428;2023-04-03T14:10:43;0.10;;;0.10;;
52166;SDS011;38149;52.666;6.428;2023-04-03T14:13:11;0.20;;;0.20;;
52166;SDS011;38149;52.666;6.428;2023-04-03T14:15:38;0.10;;;0.10;;
52166;SDS011;38149;52.666;6.428;2023-04-03T14:18:15;0.20;;;0.20;;
52166;SDS011;38149;52.666;6.428;2023-04-03T14:20:43;0.10;;;0.10;;
52166;SDS011;38149;52.666;6.428;2023-04-03T14:23:09;0.20;;;0.20;;
52166;SDS011;38149;52.666;6.428;2023-04-03T14:25:36;0.10;;;0.10;;
52166;SDS011;38149;52.666;6.428;2023-04-03T14:28:12;0.20;;;0.20;;
52166;SDS011;38149;52.666;6.428;2023-04-03T14:30:41;0.20;;;0.20;;
52166;SDS011;38149;52.666;6.428;2023-04-03T14:33:09;0.10;;;0.10;;
52166;SDS011;38149;52.666;6.428;2023-04-03T14:35:40;0.20;;;0.20;;
52166;SDS011;38149;52.666;6.428;2023-04-03T14:38:26;0.10;;;0.10;;
52166;SDS011;38149;52.666;6.428;2023-04-03T14:40:54;0.10;;;0.10;;
52166;SDS011;38149;52.666;6.428;2023-04-03T14:43:21;0.10;;;0.10;;
52166;SDS011;38149;52.666;6.428;2023-04-03T14:45:48;0.20;;;0.20;;
52166;SDS011;38149;52.666;6.428;2023-04-03T14:48:24;0.10;;;0.10;;
52166;SDS011;38149;52.666;6.428;2023-04-03T14:50:52;0.10;;;0.10;;
52166;SDS011;38149;52.666;6.428;2023-04-03T14:53:19;0.20;;;0.20;;
52166;SDS011;38149;52.666;6.428;2023-04-03T14:55:51;0.10;;;0.10;;
52166;SDS011;38149;52.666;6.428;2023-04-03T14:58:19;0.10;;;0.10;;
52166;SDS011;38149;52.666;6.428;2023-04-03T15:00:46;0.10;;;0.10;;
52166;SDS011;38149;52.666;6.428;2023-04-03T15:03:13;0.20;;;0.20;;
52166;SDS011;38149;52.666;6.428;2023-04-03T15:05:41;0.20;;;0.20;;
52166;SDS011;38149;52.666;6.428;2023-04-03T15:08:11;0.20;;;0.20;;
52166;SDS011;38149;52.666;6.428;2023-04-03T15:10:44;0.10;;;0.10;;
52166;SDS011;38149;52.666;6.428;2023-04-03T15:13:10;0.10;;;0.10;;
52166;SDS011;38149;52.666;6.428;2023-04-03T15:15:37;0.10;;;0.10;;
52166;SDS011;38149;52.666;6.428;2023-04-03T15:18:03;0.10;;;0.10;;
52166;SDS011;38149;52.666;6.428;2023-04-03T15:20:30;0.10;;;0.10;;
52166;SDS011;38149;52.666;6.428;2023-04-03T15:22:58;0.10;;;0.10;;
52166;SDS011;38149;52.666;6.428;2023-04-03T15:25:28;0.10;;;0.10;;
52166;SDS011;38149;52.666;6.428;2023-04-03T15:27:54;0.10;;;0.10;;
52166;SDS011;38149;52.666;6.428;2023-04-03T15:30:21;0.10;;;0.10;;
52166;SDS011;38149;52.666;6.428;2023-04-03T15:32:47;0.10;;;0.10;;
52166;SDS011;38149;52.666;6.428;2023-04-03T15:35:13;0.10;;;0.10;;
52166;SDS011;38149;52.666;6.428;2023-04-03T15:37:40;0.10;;;0.10;;
52166;SDS011;38149;52.666;6.428;2023-04-03T15:40:07;0.10;;;0.10;;
52166;SDS011;38149;52.666;6.428;2023-04-03T15:42:33;0.20;;;0.20;;
52166;SDS011;38149;52.666;6.428;2023-04-03T15:45:00;0.10;;;0.10;;
52166;SDS011;38149;52.666;6.428;2023-04-03T15:47:26;0.10;;;0.10;;
52166;SDS011;38149;52.666;6.428;2023-04-03T15:49:53;0.10;;;0.10;;
52166;SDS011;38149;52.666;6.428;2023-04-03T15:52:19;0.10;;;0.10;;
52166;SDS011;38149;52.666;6.428;2023-04-03T15:54:46;0.10;;;0.10;;
52166;SDS011;38149;52.666;6.428;2023-04-03T15:57:12;0.10;;;0.10;;
52166;SDS011;38149;52.666;6.428;2023-04-03T15:59:38;0.10;;;0.10;;
52166;SDS011;38149;52.666;6.428;2023-04-03T16:02:06;0.10;;;0.10;;
52166;SDS011;38149;52.666;6.428;2023-04-03T16:04:33;0.10;;;0.10;;
52166;SDS011;38149;52.666;6.428;2023-04-03T16:07:03;0.10;;;0.10;;
52166;SDS011;38149;52.666;6.428;2023-04-03T16:09:29;0.10;;;0.10;;
52166;SDS011;38149;52.666;6.428;2023-04-03T16:11:56;0.10;;;0.10;;
52166;SDS011;38149;52.666;6.428;2023-04-03T16:14:23;0.10;;;0.10;;
52166;SDS011;38149;52.666;6.428;2023-04-03T16:16:49;0.10;;;0.10;;
52166;SDS011;38149;52.666;6.428;2023-04-03T16:19:15;0.10;;;0.10;;
52166;SDS011;38149;52.666;6.428;2023-04-03T16:21:41;0.10;;;0.10;;
52166;SDS011;38149;52.666;6.428;2023-04-03T16:24:08;0.10;;;0.10;;
52166;SDS011;38149;52.666;6.428;2023-04-03T16:26:34;0.10;;;0.10;;
52166;SDS011;38149;52.666;6.428;2023-04-03T16:29:00;0.10;;;0.10;;
52166;SDS011;38149;52.666;6.428;2023-04-03T16:31:26;0.10;;;0.10;;
52166;SDS011;38149;52.666;6.428;2023-04-03T16:33:53;0.10;;;0.10;;
52166;SDS011;38149;52.666;6.428;2023-04-03T16:36:20;0.10;;;0.10;;
52166;SDS011;38149;52.666;6.428;2023-04-03T16:38:46;0.10;;;0.10;;
52166;SDS011;38149;52.666;6.428;2023-04-03T16:41:12;0.10;;;0.10;;
52166;SDS011;38149;52.666;6.428;2023-04-03T16:43:38;0.10;;;0.10;;
52166;SDS011;38149;52.666;6.428;2023-04-03T16:46:04;0.10;;;0.10;;
52166;SDS011;38149;52.666;6.428;2023-04-03T16:48:31;0.10;;;0.10;;
52166;SDS011;38149;52.666;6.428;2023-04-03T16:50:58;0.10;;;0.10;;
52166;SDS011;38149;52.666;6.428;2023-04-03T16:53:24;0.10;;;0.10;;
52166;SDS011;38149;52.666;6.428;2023-04-03T16:55:51;0.10;;;0.10;;
52166;SDS011;38149;52.666;6.428;2023-04-03T16:58:17;0.10;;;0.10;;
52166;SDS011;38149;52.666;6.428;2023-04-03T17:00:43;0.10;;;0.10;;
52166;SDS011;38149;52.666;6.428;2023-04-03T17:03:09;0.10;;;0.10;;
52166;SDS011;38149;52.666;6.428;2023-04-03T17:05:35;0.10;;;0.10;;
52166;SDS011;38149;52.666;6.428;2023-04-03T17:08:01;0.20;;;0.20;;
52166;SDS011;38149;52.666;6.428;2023-04-03T17:10:36;0.10;;;0.10;;
52166;SDS011;38149;52.666;6.428;2023-04-03T17:13:08;0.10;;;0.10;;
52166;SDS011;38149;52.666;6.428;2023-04-03T17:15:34;0.10;;;0.10;;
52166;SDS011;38149;52.666;6.428;2023-04-03T17:18:01;0.10;;;0.10;;
52166;SDS011;38149;52.666;6.428;2023-04-03T17:20:27;0.20;;;0.20;;
52166;SDS011;38149;52.666;6.428;2023-04-03T17:22:54;0.20;;;0.20;;